Observations for KINLOSS RAF, United Kingdom (EGQK)

EGQK 201650Z AUTO 26014KT 9999 BKN050/// BKN090/// 13/06 Q1015  
EGQK 201550Z AUTO 27013KT 9999 BKN050/// 14/05 Q1015
EGQK 201450Z AUTO 27018KT 9999 BKN050/// 14/07 Q1015
EGQK 201350Z AUTO 26004KT 9999 FEW050/// 15/08 Q1015 RERA   
EGQK 201250Z AUTO 34007KT 9999 SCT027/// SCT038/// 12/08 Q1015  
EGQK 201150Z AUTO 26006KT 9999 BKN050/// 13/06 Q1014
EGQK 201050Z AUTO 24006KT 9999 SCT018/// BKN048/// 13/08 Q1014  
EGQK 200950Z AUTO 28004KT 9999 FEW013/// BKN039/// 11/08 Q1014 RERA 
EGQK 200850Z AUTO 35007KT 9999 FEW017/// BKN042/// 10/08 Q1014  
EGQK 200750Z AUTO 01011KT 9999 SCT009/// BKN039/// 10/08 Q1013 RERA 
EGQK 200650Z AUTO 02011KT 9999 -RA BKN009/// 10/09 Q1012
EGQK 200550Z AUTO 03010KT 5000 RA FEW007/// BKN009/// 09/09 Q1012   
EGQK 200450Z AUTO 36010KT 6000 RA BKN007/// BKN015/// 09/09 Q1011   
EGQK 200350Z AUTO 06002KT 5000 -DZ SCT014/// BKN024/// 09/09 Q1011  
EGQK 200250Z AUTO 11002KT 9999 RA FEW027/// BKN032/// 09/08 Q1011   
EGQK 200150Z AUTO 07003KT 9999 BKN037/// BKN045/// 09/09 Q1012 RERA 
EGQK 200050Z AUTO 09005KT 9999 BKN045/// BKN090/// 10/09 Q1012 RERA 
EGQK 192350Z AUTO 07003KT 9999 -RA BKN050/// 10/09 Q1013
EGQK 192250Z AUTO 09004KT 9999 -RA FEW024/// BKN037/// 10/09 Q1014  
EGQK 192150Z AUTO 12003KT 9999 -RA FEW028/// BKN045/// 11/09 Q1014  
EGQK 192050Z AUTO 06002KT 9999 -RA FEW031/// BKN037/// 11/09 Q1015  
EGQK 191950Z AUTO 33006KT 9999 -RA BKN045/// 12/08 Q1014
EGQK 191850Z AUTO 27009KT 9999 FEW090/// 14/05 Q1014
EGQK 191750Z AUTO 27010KT 9999 SCT060/// SCT100/// 15/04 Q1014  
EGQK 191650Z AUTO 26010KT 9999 FEW049/// SCT060/// 15/06 Q1015